createdAt,value
2022-11-16T00:00:30.755Z,98484.66
2022-11-16T00:03:33.340Z,98472.22
2022-11-16T00:06:34.730Z,98470.69
2022-11-16T00:09:36.175Z,98478.72
2022-11-16T00:12:38.725Z,98473.53
2022-11-16T00:15:40.152Z,98478.28
2022-11-16T00:18:42.217Z,98472.41
2022-11-16T00:21:43.758Z,98469.44
2022-11-16T00:24:45.126Z,98472.63
2022-11-16T00:27:46.601Z,98464.94
2022-11-16T00:30:48.062Z,98458.09
2022-11-16T00:33:50.619Z,98460.59
2022-11-16T00:36:52.325Z,98457.81
2022-11-16T00:39:53.964Z,98441.78
2022-11-16T00:42:55.364Z,98445.63
2022-11-16T00:45:56.758Z,98442.53
2022-11-16T00:48:58.182Z,98444.72
2022-11-16T00:51:59.676Z,98440.34
2022-11-16T00:55:01.606Z,98436.28
2022-11-16T00:58:03.304Z,98437.13
2022-11-16T01:01:09.592Z,98431.84
2022-11-16T01:04:11.127Z,98434.47
2022-11-16T01:07:12.570Z,98432.41
2022-11-16T01:10:19.890Z,98442.94
2022-11-16T01:13:21.270Z,98442.94
2022-11-16T01:16:23.812Z,98438.03
2022-11-16T01:19:25.248Z,98446.19
2022-11-16T01:22:26.684Z,98455.31
2022-11-16T01:25:28.105Z,98455.09
2022-11-16T01:28:31.166Z,98464.94
2022-11-16T01:31:33.108Z,98467.38
2022-11-16T01:34:37.259Z,98474.09
2022-11-16T01:37:46.489Z,98477.84
2022-11-16T01:40:47.987Z,98483.16
2022-11-16T01:43:54.607Z,98488.19
2022-11-16T01:46:59.575Z,98497.38
2022-11-16T01:50:10.184Z,98496.22
2022-11-16T01:53:13.490Z,98497.47
2022-11-16T01:56:31.479Z,98503.00
2022-11-16T01:59:48.286Z,98518.34
2022-11-16T02:02:54.501Z,98529.50
2022-11-16T02:06:35.439Z,98508.34
2022-11-16T02:10:05.650Z,98502.44
2022-11-16T02:13:39.643Z,98481.28
2022-11-16T02:17:07.321Z,98467.44
2022-11-16T02:20:32.410Z,98446.22
2022-11-16T02:24:05.075Z,98477.19
2022-11-16T02:27:12.520Z,98495.25
2022-11-16T02:30:14.841Z,98495.88
2022-11-16T02:33:22.568Z,98502.38
2022-11-16T02:36:25.596Z,98492.56
2022-11-16T02:39:31.714Z,98495.81
2022-11-16T02:42:38.866Z,98485.56
2022-11-16T02:45:44.352Z,98488.00
2022-11-16T02:48:50.706Z,98484.53
2022-11-16T02:51:53.869Z,98481.69
2022-11-16T02:54:55.352Z,98493.56
2022-11-16T02:58:00.631Z,98483.69
2022-11-16T03:01:08.883Z,98485.22
2022-11-16T03:04:19.935Z,98499.75
2022-11-16T03:07:29.153Z,98500.31
2022-11-16T03:10:50.597Z,98501.84
2022-11-16T03:14:01.493Z,98490.41
2022-11-16T03:17:08.075Z,98474.56
2022-11-16T03:20:27.387Z,98481.25
2022-11-16T03:23:29.329Z,98479.25
2022-11-16T03:26:38.166Z,98489.56
2022-11-16T03:29:55.384Z,98482.84
2022-11-16T03:33:16.873Z,98480.69
2022-11-16T03:36:29.485Z,98481.34
2022-11-16T03:39:36.859Z,98488.03
2022-11-16T03:42:41.516Z,98479.69
2022-11-16T03:45:45.483Z,98485.34
2022-11-16T03:48:46.994Z,98491.78
2022-11-16T03:51:58.712Z,98492.25
2022-11-16T03:55:00.232Z,98497.03
2022-11-16T03:58:01.898Z,98504.28
2022-11-16T04:01:03.633Z,98488.81
2022-11-16T04:04:05.659Z,98496.41
2022-11-16T04:07:26.825Z,98491.16
2022-11-16T04:10:47.035Z,98501.31
2022-11-16T04:14:09.396Z,98497.03
2022-11-16T04:17:34.442Z,98505.16
2022-11-16T04:20:54.491Z,98496.28
2022-11-16T04:24:14.286Z,98500.91
2022-11-16T04:27:36.319Z,98498.34
2022-11-16T04:30:56.461Z,98504.84
2022-11-16T04:34:16.659Z,98499.16
2022-11-16T04:37:41.988Z,98500.34
2022-11-16T04:40:43.595Z,98509.91
2022-11-16T04:43:47.306Z,98508.88
2022-11-16T04:47:06.906Z,98513.78
2022-11-16T04:50:10.188Z,98507.72
2022-11-16T04:53:14.077Z,98510.53
2022-11-16T04:56:22.496Z,98511.78
2022-11-16T04:59:24.432Z,98501.22
2022-11-16T05:02:27.474Z,98502.03
2022-11-16T05:05:32.246Z,98501.84
2022-11-16T05:08:35.256Z,98509.28
2022-11-16T05:11:38.723Z,98503.63
2022-11-16T05:14:41.194Z,98512.88
2022-11-16T05:17:43.032Z,98530.56
2022-11-16T05:21:02.930Z,98529.25
2022-11-16T05:24:29.057Z,98529.97
2022-11-16T05:27:31.488Z,98529.53
2022-11-16T05:30:33.006Z,98536.81
2022-11-16T05:33:36.292Z,98529.69
2022-11-16T05:36:38.134Z,98530.56
2022-11-16T05:39:39.691Z,98535.56
2022-11-16T05:42:41.450Z,98546.94
2022-11-16T05:45:43.536Z,98536.97
2022-11-16T05:48:46.087Z,98536.00
2022-11-16T05:51:48.645Z,98541.19
2022-11-16T05:55:05.172Z,98541.63
2022-11-16T05:58:10.760Z,98545.56
2022-11-16T06:01:12.771Z,98541.47
2022-11-16T06:04:14.828Z,98543.38
2022-11-16T06:07:17.296Z,98549.25
2022-11-16T06:10:18.933Z,98551.56
2022-11-16T06:13:23.803Z,98554.00
2022-11-16T06:16:30.282Z,98558.28
2022-11-16T06:19:32.837Z,98554.41
2022-11-16T06:22:34.502Z,98556.00
2022-11-16T06:25:38.384Z,98557.50
2022-11-16T06:28:39.965Z,98566.53
2022-11-16T06:31:41.398Z,98566.88
2022-11-16T06:34:43.128Z,98567.59
2022-11-16T06:37:46.705Z,98567.34
2022-11-16T06:40:53.247Z,98566.84
2022-11-16T06:43:56.295Z,98563.56
2022-11-16T06:47:04.436Z,98566.31
2022-11-16T06:50:07.942Z,98576.22
2022-11-16T06:53:09.507Z,98580.94
2022-11-16T06:56:14.097Z,98575.75
2022-11-16T06:59:20.836Z,98583.78
2022-11-16T07:02:23.140Z,98583.44
2022-11-16T07:05:25.568Z,98591.13
2022-11-16T07:08:28.642Z,98590.34
2022-11-16T07:11:30.170Z,98596.91
2022-11-16T07:14:33.008Z,98594.47
2022-11-16T07:17:34.453Z,98602.34
2022-11-16T07:20:38.864Z,98598.88
2022-11-16T07:23:40.930Z,98596.72
2022-11-16T07:26:45.148Z,98601.44
2022-11-16T07:29:51.436Z,98610.84
2022-11-16T07:33:03.860Z,98606.78
2022-11-16T07:36:28.265Z,98604.97
2022-11-16T07:39:29.975Z,98605.78
2022-11-16T07:42:32.273Z,98601.78
2022-11-16T07:45:55.706Z,98606.66
2022-11-16T07:48:59.274Z,98614.66
2022-11-16T07:52:17.351Z,98620.03
2022-11-16T07:55:32.207Z,98627.28
2022-11-16T07:58:36.681Z,98618.47
2022-11-16T08:01:39.173Z,98627.06
2022-11-16T08:04:41.148Z,98631.16
2022-11-16T08:07:43.669Z,98631.03
2022-11-16T08:10:45.078Z,98633.91
2022-11-16T08:13:46.826Z,98632.16
2022-11-16T08:16:48.674Z,98631.63
2022-11-16T08:19:53.258Z,98629.94
2022-11-16T08:23:00.319Z,98634.19
2022-11-16T08:26:14.192Z,98640.25
2022-11-16T08:29:16.226Z,98636.31
2022-11-16T08:32:23.065Z,98637.34
2022-11-16T08:35:24.869Z,98639.41
2022-11-16T08:38:27.579Z,98635.56
2022-11-16T08:41:29.297Z,98641.94
2022-11-16T08:44:30.877Z,98637.25
2022-11-16T08:47:35.940Z,98643.91
2022-11-16T08:51:02.360Z,98637.09
2022-11-16T08:54:00.362Z,98639.63
2022-11-16T08:57:03.256Z,98639.53
2022-11-16T09:00:08.095Z,98638.88
2022-11-16T09:03:09.471Z,98642.94
2022-11-16T09:06:11.562Z,98641.66
2022-11-16T09:09:13.075Z,98646.41
2022-11-16T09:12:14.536Z,98637.53
2022-11-16T09:15:16.434Z,98632.91
2022-11-16T09:18:17.847Z,98640.78
2022-11-16T09:21:25.363Z,98646.03
2022-11-16T09:24:26.988Z,98640.63
2022-11-16T09:27:28.550Z,98639.91
2022-11-16T09:30:29.942Z,98636.94
2022-11-16T09:33:33.249Z,98639.84
2022-11-16T09:36:35.010Z,98628.66
2022-11-16T09:39:36.457Z,98623.97
2022-11-16T09:42:51.339Z,98631.06
2022-11-16T09:46:01.822Z,98631.16
2022-11-16T09:49:17.273Z,98630.97
2022-11-16T09:52:34.323Z,98638.69
2022-11-16T09:55:47.539Z,98636.69
2022-11-16T09:58:55.421Z,98641.94
2022-11-16T10:02:04.519Z,98647.00
2022-11-16T10:05:24.134Z,98651.47
2022-11-16T10:08:43.077Z,98645.34
2022-11-16T10:11:54.732Z,98643.34
2022-11-16T10:15:28.214Z,98646.78
2022-11-16T10:18:53.904Z,98637.84
2022-11-16T10:22:04.393Z,98637.66
2022-11-16T10:25:20.597Z,98634.63
2022-11-16T10:28:43.494Z,98618.19
2022-11-16T10:32:02.993Z,98619.38
2022-11-16T10:35:12.491Z,98619.63
2022-11-16T10:38:17.114Z,98616.00
2022-11-16T10:41:33.244Z,98628.84
2022-11-16T10:44:45.334Z,98617.66
2022-11-16T10:47:56.688Z,98610.97
2022-11-16T10:50:58.192Z,98614.56
2022-11-16T10:53:59.694Z,98606.84
2022-11-16T10:57:13.730Z,98606.53
2022-11-16T11:00:52.384Z,98599.97
2022-11-16T11:03:53.844Z,98590.19
2022-11-16T11:07:00.274Z,98588.00
2022-11-16T11:10:01.798Z,98582.34
2022-11-16T11:13:12.566Z,98581.53
2022-11-16T11:16:17.433Z,98577.50
2022-11-16T11:19:28.813Z,98577.53
2022-11-16T11:22:32.092Z,98576.94
2022-11-16T11:25:36.604Z,98563.34
2022-11-16T11:28:38.640Z,98563.53
2022-11-16T11:31:44.997Z,98566.16
2022-11-16T11:34:50.331Z,98549.56
2022-11-16T11:37:54.879Z,98550.38
2022-11-16T11:40:59.130Z,98548.09
2022-11-16T11:44:18.384Z,98542.47
2022-11-16T11:48:02.959Z,98550.97
2022-11-16T11:51:17.084Z,98549.97
2022-11-16T11:54:45.839Z,98538.63
2022-11-16T11:57:50.698Z,98544.94
2022-11-16T12:01:19.549Z,98549.13
2022-11-16T12:05:01.320Z,98536.22
2022-11-16T12:08:31.057Z,98523.84
2022-11-16T12:12:04.305Z,98532.75
2022-11-16T12:15:48.900Z,98518.38
2022-11-16T12:19:16.642Z,98525.47
2022-11-16T12:22:43.208Z,98512.47
2022-11-16T12:26:09.341Z,98507.88
2022-11-16T12:29:24.648Z,98510.66
2022-11-16T12:32:52.281Z,98495.03
2022-11-16T12:36:29.094Z,98492.88
2022-11-16T12:40:18.575Z,98485.72
2022-11-16T12:43:38.455Z,98491.81
2022-11-16T12:46:54.085Z,98483.50
2022-11-16T12:50:22.747Z,98473.38
2022-11-16T12:54:07.307Z,98473.75
2022-11-16T12:57:33.836Z,98464.44
2022-11-16T13:00:51.591Z,98447.38
2022-11-16T13:03:58.696Z,98455.53
2022-11-16T13:07:25.025Z,98455.47
2022-11-16T13:10:31.534Z,98456.63
2022-11-16T13:13:36.944Z,98446.31
2022-11-16T13:16:38.798Z,98434.13
2022-11-16T13:19:45.728Z,98433.63
2022-11-16T13:22:58.357Z,98435.34
2022-11-16T13:26:16.012Z,98436.13
2022-11-16T13:29:22.260Z,98446.66
2022-11-16T13:32:51.921Z,98439.38
2022-11-16T13:35:53.359Z,98437.78
2022-11-16T13:38:54.765Z,98431.53
2022-11-16T13:42:11.634Z,98431.50
2022-11-16T13:45:19.637Z,98428.31
2022-11-16T13:48:38.405Z,98425.66
2022-11-16T13:51:49.724Z,98428.91
2022-11-16T13:54:53.690Z,98423.88
2022-11-16T13:57:57.858Z,98435.38
2022-11-16T14:01:04.281Z,98420.41
2022-11-16T14:04:35.536Z,98423.19
2022-11-16T14:07:47.046Z,98422.44
2022-11-16T14:10:51.411Z,98413.91
2022-11-16T14:13:53.022Z,98422.44
2022-11-16T14:16:54.601Z,98421.63
2022-11-16T14:19:56.228Z,98409.03
2022-11-16T14:23:11.401Z,98404.63
2022-11-16T14:26:32.578Z,98401.00
2022-11-16T14:29:51.506Z,98405.06
2022-11-16T14:32:56.166Z,98395.94
2022-11-16T14:35:58.354Z,98402.59
2022-11-16T14:39:13.778Z,98401.38
2022-11-16T14:42:42.997Z,98400.78
2022-11-16T14:45:59.218Z,98394.13
2022-11-16T14:49:02.320Z,98392.88
2022-11-16T14:52:06.800Z,98388.44
2022-11-16T14:55:16.806Z,98375.09
2022-11-16T14:58:23.192Z,98368.19
2022-11-16T15:01:28.688Z,98366.38
2022-11-16T15:04:30.765Z,98367.41
2022-11-16T15:07:32.497Z,98369.03
2022-11-16T15:10:34.001Z,98372.25
2022-11-16T15:13:36.219Z,98365.38
2022-11-16T15:16:49.132Z,98361.53
2022-11-16T15:19:59.194Z,98364.59
2022-11-16T15:23:02.170Z,98353.81
2022-11-16T15:26:05.527Z,98348.78
2022-11-16T15:29:15.248Z,98351.41
2022-11-16T15:32:17.549Z,98349.16
2022-11-16T15:35:24.754Z,98341.91
2022-11-16T15:38:31.173Z,98333.22
2022-11-16T15:41:33.644Z,98327.91
2022-11-16T15:44:35.370Z,98331.56
2022-11-16T15:47:37.388Z,98336.44
2022-11-16T15:50:39.018Z,98329.88
2022-11-16T15:53:42.729Z,98324.09
2022-11-16T15:56:44.236Z,98330.53
2022-11-16T15:59:52.024Z,98324.03
2022-11-16T16:03:02.164Z,98318.94
2022-11-16T16:06:05.022Z,98319.66
2022-11-16T16:09:06.709Z,98309.28
2022-11-16T16:12:23.165Z,98307.69
2022-11-16T16:15:40.179Z,98299.22
2022-11-16T16:18:43.978Z,98298.47
2022-11-16T16:21:46.817Z,98300.28
2022-11-16T16:24:48.262Z,98302.75
2022-11-16T16:27:49.688Z,98304.75
2022-11-16T16:30:52.212Z,98300.53
2022-11-16T16:33:55.521Z,98310.97
2022-11-16T16:36:57.197Z,98301.50
2022-11-16T16:39:59.991Z,98300.09
2022-11-16T16:43:01.415Z,98289.75
2022-11-16T16:46:03.879Z,98293.44
2022-11-16T16:49:05.315Z,98290.22
2022-11-16T16:52:07.710Z,98294.50
2022-11-16T16:55:09.176Z,98294.22
2022-11-16T16:58:12.330Z,98292.47
2022-11-16T17:01:14.170Z,98290.47
2022-11-16T17:04:15.674Z,98298.06
2022-11-16T17:07:17.398Z,98303.16
2022-11-16T17:10:19.204Z,98300.00
2022-11-16T17:13:20.727Z,98300.28
2022-11-16T17:16:22.613Z,98287.88
2022-11-16T17:19:24.446Z,98289.72
2022-11-16T17:22:26.118Z,98285.88
2022-11-16T17:25:27.726Z,98286.22
2022-11-16T17:28:29.433Z,98280.28
2022-11-16T17:31:31.039Z,98269.88
2022-11-16T17:34:32.525Z,98261.50
2022-11-16T17:37:34.048Z,98260.13
2022-11-16T17:40:35.482Z,98252.81
2022-11-16T17:43:37.121Z,98252.41
2022-11-16T17:46:38.862Z,98237.66
2022-11-16T17:49:40.470Z,98219.88
2022-11-16T17:52:41.944Z,98203.53
2022-11-16T17:55:43.521Z,98197.84
2022-11-16T17:58:45.297Z,98200.09
2022-11-16T18:01:46.752Z,98193.44
2022-11-16T18:04:51.215Z,98182.94
2022-11-16T18:07:53.187Z,98177.63
2022-11-16T18:10:54.699Z,98175.44
2022-11-16T18:14:00.543Z,98165.13
2022-11-16T18:17:02.262Z,98171.81
2022-11-16T18:20:04.792Z,98170.00
2022-11-16T18:23:06.278Z,98156.78
2022-11-16T18:26:14.363Z,98156.50
2022-11-16T18:29:18.562Z,98155.28
2022-11-16T18:32:20.062Z,98147.09
2022-11-16T18:35:21.779Z,98137.72
2022-11-16T18:38:23.445Z,98142.97
2022-11-16T18:41:27.513Z,98137.94
2022-11-16T18:44:28.995Z,98147.38
2022-11-16T18:47:30.804Z,98144.72
2022-11-16T18:50:32.282Z,98147.19
2022-11-16T18:53:34.394Z,98151.19
2022-11-16T18:56:36.342Z,98157.81
2022-11-16T18:59:38.095Z,98156.44
2022-11-16T19:02:41.806Z,98159.84
2022-11-16T19:05:43.423Z,98170.38
2022-11-16T19:08:50.445Z,98173.44
2022-11-16T19:11:55.381Z,98177.06
2022-11-16T19:14:56.869Z,98188.34
2022-11-16T19:18:20.241Z,98188.09
2022-11-16T19:21:20.239Z,98184.41
2022-11-16T19:24:21.954Z,98183.34
2022-11-16T19:27:23.570Z,98155.34
2022-11-16T19:30:25.148Z,98142.25
2022-11-16T19:33:26.661Z,98117.00
2022-11-16T19:36:30.274Z,98098.28
2022-11-16T19:39:32.160Z,98088.22
2022-11-16T19:42:33.974Z,98093.56
2022-11-16T19:45:35.629Z,98102.06
2022-11-16T19:48:37.886Z,98090.06
2022-11-16T19:51:39.494Z,98092.44
2022-11-16T19:54:41.013Z,98117.91
2022-11-16T19:57:42.728Z,98114.41
2022-11-16T20:00:44.466Z,98121.28
2022-11-16T20:03:47.441Z,98123.63
2022-11-16T20:06:48.955Z,98134.41
2022-11-16T20:09:53.322Z,98131.91
2022-11-16T20:12:56.732Z,98122.13
2022-11-16T20:16:01.311Z,98115.28
2022-11-16T20:19:03.041Z,98115.91
2022-11-16T20:22:04.596Z,98108.06
2022-11-16T20:25:06.554Z,98106.47
2022-11-16T20:28:09.519Z,98102.28
2022-11-16T20:31:16.909Z,98104.06
2022-11-16T20:34:20.310Z,98105.06
2022-11-16T20:37:22.006Z,98107.34
2022-11-16T20:40:24.466Z,98099.22
2022-11-16T20:43:25.964Z,98105.22
2022-11-16T20:46:29.841Z,98103.25
2022-11-16T20:49:31.354Z,98098.34
2022-11-16T20:52:33.648Z,98094.59
2022-11-16T20:55:35.998Z,98104.19
2022-11-16T20:58:38.294Z,98104.13
2022-11-16T21:01:41.541Z,98102.63
2022-11-16T21:04:43.191Z,98109.09
2022-11-16T21:07:44.804Z,98114.75
2022-11-16T21:10:48.226Z,98097.66
2022-11-16T21:14:08.483Z,98090.94
2022-11-16T21:17:09.941Z,98093.84
2022-11-16T21:20:27.074Z,98098.03
2022-11-16T21:23:32.026Z,98093.97
2022-11-16T21:26:34.559Z,98093.75
2022-11-16T21:29:36.076Z,98099.00
2022-11-16T21:32:37.679Z,98091.75
2022-11-16T21:35:39.178Z,98080.66
2022-11-16T21:38:41.315Z,98073.63
2022-11-16T21:41:42.799Z,98064.31
2022-11-16T21:44:44.437Z,98068.56
2022-11-16T21:47:45.925Z,98064.94
2022-11-16T21:50:47.462Z,98058.69
2022-11-16T21:53:48.980Z,98059.50
2022-11-16T21:56:50.541Z,98049.78
2022-11-16T21:59:52.144Z,98059.91
2022-11-16T22:02:53.941Z,98055.28
2022-11-16T22:06:16.779Z,98045.13
2022-11-16T22:09:18.314Z,98047.00
2022-11-16T22:12:19.764Z,98032.56
2022-11-16T22:15:21.354Z,98027.09
2022-11-16T22:18:22.814Z,97995.91
2022-11-16T22:21:24.454Z,97995.16
2022-11-16T22:24:26.032Z,97992.72
2022-11-16T22:27:27.743Z,98008.81
2022-11-16T22:30:29.264Z,98002.97
2022-11-16T22:33:31.951Z,97986.84
2022-11-16T22:36:33.606Z,97982.22
2022-11-16T22:39:36.533Z,97976.16
2022-11-16T22:42:38.503Z,97969.66
2022-11-16T22:45:40.021Z,97968.28
2022-11-16T22:48:41.950Z,97971.16
2022-11-16T22:51:43.508Z,97969.31
2022-11-16T22:54:45.108Z,97950.38
2022-11-16T22:57:46.648Z,97944.94
2022-11-16T23:00:48.138Z,97946.25
2022-11-16T23:03:50.462Z,97941.00
2022-11-16T23:06:52.023Z,97942.81
2022-11-16T23:09:53.535Z,97930.25
2022-11-16T23:13:13.695Z,97919.31
2022-11-16T23:16:15.176Z,97924.00
2022-11-16T23:19:37.155Z,97925.81
2022-11-16T23:22:56.945Z,97911.13
2022-11-16T23:26:16.719Z,97914.13
2022-11-16T23:29:18.112Z,97914.72
2022-11-16T23:32:19.631Z,97910.22
2022-11-16T23:35:22.142Z,97888.84
2022-11-16T23:38:23.530Z,97889.72
2022-11-16T23:41:43.718Z,97892.25
2022-11-16T23:44:45.225Z,97883.88
2022-11-16T23:47:46.602Z,97872.69
2022-11-16T23:50:48.019Z,97869.78
2022-11-16T23:53:51.455Z,97867.34
2022-11-16T23:56:52.856Z,97867.34
2022-11-16T23:59:54.397Z,97862.31
